createdAt,value
2018-04-13T00:04:51.464Z,60.40
2018-04-13T00:09:53.952Z,60.50
2018-04-13T00:14:57.214Z,60.20
2018-04-13T00:19:59.708Z,60.40
2018-04-13T00:25:02.213Z,60.20
2018-04-13T00:30:04.707Z,60.50
2018-04-13T00:35:07.200Z,60.50
2018-04-13T00:40:09.700Z,60.30
2018-04-13T00:45:12.187Z,60.30
2018-04-13T00:50:14.676Z,60.70
2018-04-13T00:55:17.164Z,60.50
2018-04-13T01:00:20.444Z,60.40
2018-04-13T01:05:22.923Z,60.30
2018-04-13T01:10:25.412Z,60.40
2018-04-13T01:15:27.914Z,60.70
2018-04-13T01:20:30.407Z,60.40
2018-04-13T01:25:32.897Z,60.40
2018-04-13T01:30:35.397Z,60.40
2018-04-13T01:35:37.881Z,60.20
2018-04-13T01:40:40.367Z,60.10
2018-04-13T01:45:42.853Z,60.00
2018-04-13T01:50:45.355Z,60.40
2018-04-13T01:55:47.879Z,60.00
2018-04-13T02:00:50.337Z,60.30
2018-04-13T02:05:52.846Z,60.00
2018-04-13T02:10:55.332Z,60.20
2018-04-13T02:15:57.828Z,60.20
2018-04-13T02:21:00.328Z,60.20
2018-04-13T02:26:02.817Z,60.40
2018-04-13T02:31:05.304Z,60.50
2018-04-13T02:36:07.786Z,60.50
2018-04-13T02:41:10.275Z,60.60
2018-04-13T02:46:12.769Z,60.50
2018-04-13T02:51:15.268Z,60.70
2018-04-13T02:56:17.763Z,60.40
2018-04-13T03:01:20.264Z,60.40
2018-04-13T03:06:22.767Z,60.50
2018-04-13T03:11:25.256Z,60.50
2018-04-13T03:16:27.745Z,60.50
2018-04-13T03:21:30.247Z,60.70
2018-04-13T03:26:32.751Z,60.50
2018-04-13T03:31:35.248Z,60.30
2018-04-13T03:36:37.739Z,60.40
2018-04-13T03:41:40.235Z,60.30
2018-04-13T03:46:42.731Z,60.30
2018-04-13T03:51:45.224Z,60.30
2018-04-13T03:56:47.728Z,60.40
2018-04-13T04:01:50.231Z,60.40
2018-04-13T04:06:52.724Z,60.40
2018-04-13T04:11:55.205Z,60.30
2018-04-13T04:16:57.704Z,60.40
2018-04-13T04:22:12.081Z,60.40
2018-04-13T04:27:15.347Z,60.80
2018-04-13T04:32:17.835Z,60.60
2018-04-13T04:37:20.341Z,60.40
2018-04-13T04:42:22.834Z,60.40
2018-04-13T04:47:25.323Z,60.70
2018-04-13T04:52:27.824Z,60.60
2018-04-13T04:57:30.320Z,61.00
2018-04-13T05:02:32.820Z,60.90
2018-04-13T05:07:35.306Z,60.90
2018-04-13T05:12:37.798Z,60.70
2018-04-13T05:17:40.291Z,60.80
2018-04-13T05:22:42.783Z,60.60
2018-04-13T05:27:45.292Z,61.10
2018-04-13T05:32:47.795Z,60.80
2018-04-13T05:37:50.295Z,60.90
2018-04-13T05:42:52.799Z,61.00
2018-04-13T05:47:55.301Z,61.10
2018-04-13T05:52:57.804Z,61.10
2018-04-13T05:58:00.296Z,61.00
2018-04-13T06:03:02.783Z,60.70
2018-04-13T06:08:05.288Z,61.70
2018-04-13T06:13:07.779Z,61.80
2018-04-13T06:18:10.281Z,61.70
2018-04-13T06:23:12.772Z,61.60
2018-04-13T06:28:15.284Z,61.40
2018-04-13T06:33:17.878Z,61.40
2018-04-13T06:38:20.387Z,62.30
2018-04-13T06:43:23.644Z,61.90
2018-04-13T06:48:26.279Z,61.90
2018-04-13T06:53:28.771Z,62.00
2018-04-13T06:58:31.315Z,61.80
2018-04-13T07:03:33.805Z,61.90
2018-04-13T07:08:36.308Z,62.10
2018-04-13T07:13:38.847Z,62.10
2018-04-13T07:18:42.066Z,62.30
2018-04-13T07:23:45.358Z,62.40
2018-04-13T07:28:47.864Z,62.40
2018-04-13T07:33:50.366Z,62.60
2018-04-13T07:38:52.867Z,62.60
2018-04-13T07:43:55.362Z,62.70
2018-04-13T07:48:57.863Z,62.60
2018-04-13T07:54:00.371Z,62.90
2018-04-13T07:59:02.876Z,62.50
2018-04-13T08:04:05.388Z,62.50
2018-04-13T08:09:08.639Z,62.90
2018-04-13T08:14:11.422Z,62.60
2018-04-13T08:19:13.637Z,62.70
2018-04-13T08:24:16.131Z,62.60
2018-04-13T08:29:18.624Z,62.60
2018-04-13T08:34:21.144Z,62.30
2018-04-13T08:39:23.636Z,62.30
2018-04-13T08:44:26.157Z,62.40
2018-04-13T08:49:28.644Z,62.30
2018-04-13T08:54:31.142Z,62.20
2018-04-13T08:59:33.643Z,62.20
2018-04-13T09:04:36.171Z,62.00
2018-04-13T09:09:38.679Z,62.00
2018-04-13T09:14:41.941Z,62.00
2018-04-13T09:19:44.427Z,62.10
2018-04-13T09:24:47.113Z,62.20
2018-04-13T09:29:49.616Z,62.20
2018-04-13T09:34:52.100Z,62.20
2018-04-13T09:39:54.608Z,62.10
2018-04-13T09:44:57.101Z,62.40
2018-04-13T09:49:59.591Z,62.40
2018-04-13T09:55:02.086Z,62.20
2018-04-13T10:00:04.575Z,62.00
2018-04-13T10:05:12.837Z,62.00
2018-04-13T10:10:22.800Z,62.20
2018-04-13T10:15:25.300Z,62.00
2018-04-13T10:20:27.781Z,62.00
2018-04-13T10:25:30.291Z,62.10
2018-04-13T10:30:32.780Z,61.60
2018-04-13T10:35:35.272Z,61.60
2018-04-13T10:40:37.887Z,61.50
2018-04-13T10:45:40.384Z,61.60
2018-04-13T10:50:43.636Z,61.20
2018-04-13T10:55:46.884Z,61.20
2018-04-13T11:00:49.380Z,60.80
2018-04-13T11:05:51.863Z,60.80
2018-04-13T11:10:54.359Z,60.80
2018-04-13T11:15:56.880Z,61.00
2018-04-13T11:20:59.372Z,61.10
2018-04-13T11:26:01.876Z,61.00
2018-04-13T11:31:04.363Z,60.60
2018-04-13T11:36:07.040Z,60.80
2018-04-13T11:41:09.532Z,60.60
2018-04-13T11:46:12.020Z,60.50
2018-04-13T11:51:14.512Z,60.40
2018-04-13T11:56:16.996Z,60.40
2018-04-13T12:01:19.479Z,60.40
2018-04-13T12:06:22.735Z,60.90
2018-04-13T12:11:25.987Z,60.50
2018-04-13T12:16:29.248Z,60.30
2018-04-13T12:21:31.836Z,60.80
2018-04-13T12:26:34.319Z,60.60
2018-04-13T12:31:36.811Z,61.10
2018-04-13T12:36:39.305Z,60.70
2018-04-13T12:41:41.788Z,60.60
2018-04-13T12:46:45.074Z,60.40
2018-04-13T12:51:47.586Z,60.40
2018-04-13T12:56:50.137Z,61.20
2018-04-13T13:01:52.644Z,60.60
2018-04-13T13:06:55.147Z,60.40
2018-04-13T13:11:57.683Z,60.00
2018-04-13T13:17:00.940Z,60.10
2018-04-13T13:22:03.444Z,60.50
2018-04-13T13:27:05.948Z,60.30
2018-04-13T13:32:08.432Z,60.30
2018-04-13T13:37:10.975Z,60.60
2018-04-13T13:42:13.464Z,60.60
2018-04-13T13:47:15.968Z,60.70
2018-04-13T13:52:18.452Z,60.20
2018-04-13T13:57:20.943Z,60.50
2018-04-13T14:02:23.451Z,60.20
2018-04-13T14:07:25.944Z,60.30
2018-04-13T14:12:28.448Z,60.40
2018-04-13T14:17:30.952Z,60.20
2018-04-13T14:22:33.447Z,60.00
2018-04-13T14:27:35.983Z,60.10
2018-04-13T14:32:38.472Z,60.10
2018-04-13T14:37:40.975Z,60.20
2018-04-13T14:42:43.472Z,60.30
2018-04-13T14:47:45.969Z,60.00
2018-04-13T14:52:48.474Z,60.00
2018-04-13T14:57:51.728Z,60.20
2018-04-13T15:02:54.225Z,60.20
2018-04-13T15:07:56.872Z,60.30
2018-04-13T15:13:00.128Z,59.90
2018-04-13T15:18:02.624Z,60.00
2018-04-13T15:23:05.123Z,59.90
2018-04-13T15:28:07.655Z,60.30
2018-04-13T15:33:10.140Z,60.20
2018-04-13T15:38:12.635Z,59.60
2018-04-13T15:43:15.129Z,60.10
2018-04-13T15:48:17.637Z,60.70
2018-04-13T15:53:20.909Z,60.60
2018-04-13T15:58:23.412Z,60.40
2018-04-13T16:03:25.914Z,60.10
2018-04-13T16:08:28.453Z,60.40
2018-04-13T16:13:31.161Z,60.40
2018-04-13T16:18:33.657Z,60.30
2018-04-13T16:23:36.154Z,60.20
2018-04-13T16:28:38.661Z,60.10
2018-04-13T16:33:41.154Z,60.10
2018-04-13T16:38:43.695Z,60.20
2018-04-13T16:43:46.903Z,59.90
2018-04-13T16:48:50.589Z,60.20
2018-04-13T16:53:53.072Z,59.90
2018-04-13T16:58:55.553Z,59.80
2018-04-13T17:03:58.035Z,59.90
2018-04-13T17:09:00.536Z,60.30
2018-04-13T17:14:03.026Z,60.20
2018-04-13T17:19:05.507Z,60.40
2018-04-13T17:24:08.008Z,60.20
2018-04-13T17:29:10.562Z,60.10
2018-04-13T17:34:13.022Z,59.80
2018-04-13T17:39:15.503Z,59.80
2018-04-13T17:44:18.159Z,60.00
2018-04-13T17:49:21.475Z,60.20
2018-04-13T17:54:24.736Z,60.20
2018-04-13T17:59:27.227Z,59.90
2018-04-13T18:04:29.719Z,60.10
2018-04-13T18:09:32.215Z,60.20
2018-04-13T18:14:34.706Z,60.30
2018-04-13T18:19:37.956Z,60.30
2018-04-13T18:24:41.228Z,60.70
2018-04-13T18:29:43.723Z,60.40
2018-04-13T18:34:46.302Z,60.30
2018-04-13T18:39:48.800Z,60.60
2018-04-13T18:44:51.299Z,60.50
2018-04-13T18:49:53.791Z,60.80
2018-04-13T18:54:56.288Z,60.20
2018-04-13T18:59:59.670Z,60.30
2018-04-13T19:05:02.156Z,60.60
2018-04-13T19:10:04.665Z,60.60
2018-04-13T19:15:07.201Z,60.90
2018-04-13T19:20:09.936Z,61.00
2018-04-13T19:25:12.427Z,60.70
2018-04-13T19:30:15.088Z,61.10
2018-04-13T19:35:17.579Z,61.00
2018-04-13T19:40:20.067Z,61.30
2018-04-13T19:45:22.647Z,61.00
2018-04-13T19:50:25.320Z,61.30
2018-04-13T19:55:27.987Z,61.30
2018-04-13T20:00:31.240Z,61.70
2018-04-13T20:05:33.733Z,61.40
2018-04-13T20:10:36.236Z,61.50
2018-04-13T20:15:39.508Z,61.50
2018-04-13T20:20:42.007Z,62.20
2018-04-13T20:25:44.520Z,61.80
2018-04-13T20:30:47.016Z,61.90
2018-04-13T20:35:49.520Z,61.70
2018-04-13T20:40:52.019Z,61.80
2018-04-13T20:45:54.543Z,61.90
2018-04-13T20:50:57.799Z,62.10
2018-04-13T20:56:00.469Z,62.00
2018-04-13T21:01:03.255Z,62.90
2018-04-13T21:06:06.513Z,61.90
2018-04-13T21:11:08.999Z,61.80
2018-04-13T21:16:11.484Z,62.00
2018-04-13T21:21:13.983Z,61.70
2018-04-13T21:26:16.493Z,61.80
2018-04-13T21:31:18.992Z,62.00
2018-04-13T21:36:21.543Z,61.80
2018-04-13T21:41:24.033Z,62.00
2018-04-13T21:46:26.536Z,62.10
2018-04-13T21:51:29.029Z,62.10
2018-04-13T21:56:31.527Z,62.10
2018-04-13T22:01:34.041Z,62.20
2018-04-13T22:06:36.541Z,62.30
2018-04-13T22:11:39.023Z,62.10
2018-04-13T22:16:41.579Z,61.80
2018-04-13T22:21:44.070Z,62.20
2018-04-13T22:26:46.559Z,62.10
2018-04-13T22:31:49.062Z,61.90
2018-04-13T22:36:51.560Z,62.20
2018-04-13T22:41:54.079Z,62.20
2018-04-13T22:46:56.579Z,62.40
2018-04-13T22:51:59.070Z,62.40
2018-04-13T22:57:01.586Z,62.30
2018-04-13T23:02:04.075Z,62.40
2018-04-13T23:07:06.567Z,62.20
2018-04-13T23:12:09.055Z,62.70
2018-04-13T23:17:11.553Z,62.00
2018-04-13T23:22:25.969Z,62.30
2018-04-13T23:27:28.456Z,62.30
2018-04-13T23:32:30.939Z,62.40
2018-04-13T23:37:33.435Z,62.30
2018-04-13T23:42:35.940Z,62.10
2018-04-13T23:47:38.427Z,61.90
2018-04-13T23:52:40.932Z,62.00
2018-04-13T23:57:43.434Z,62.30
